地図

経路データ

SID SEASON NUMBER BASIN SUBBASIN NAME ISO_TIME NATURE LAT LON WMO_WIND WMO_PRES WMO_AGENCY TRACK_TYPE DIST2LAND LANDFALL IFLAG USA_AGENCY USA_ATCF_ID USA_LAT USA_LON USA_RECORD USA_STATUS USA_WIND USA_PRES USA_SSHS USA_R34_NE USA_R34_SE USA_R34_SW USA_R34_NW USA_R50_NE USA_R50_SE USA_R50_SW USA_R50_NW USA_R64_NE USA_R64_SE USA_R64_SW USA_R64_NW USA_POCI USA_ROCI USA_RMW USA_EYE TOKYO_LAT TOKYO_LON TOKYO_GRADE TOKYO_WIND TOKYO_PRES TOKYO_R50_DIR TOKYO_R50_LONG TOKYO_R50_SHORT TOKYO_R30_DIR TOKYO_R30_LONG TOKYO_R30_SHORT TOKYO_LAND CMA_LAT CMA_LON CMA_CAT CMA_WIND CMA_PRES HKO_LAT HKO_LON HKO_CAT HKO_WIND HKO_PRES NEWDELHI_LAT NEWDELHI_LON NEWDELHI_GRADE NEWDELHI_WIND NEWDELHI_PRES NEWDELHI_CI NEWDELHI_DP NEWDELHI_POCI REUNION_LAT REUNION_LON REUNION_TYPE REUNION_WIND REUNION_PRES REUNION_TNUM REUNION_CI REUNION_RMW REUNION_R34_NE REUNION_R34_SE REUNION_R34_SW REUNION_R34_NW REUNION_R50_NE REUNION_R50_SE REUNION_R50_SW REUNION_R50_NW REUNION_R64_NE REUNION_R64_SE REUNION_R64_SW REUNION_R64_NW BOM_LAT BOM_LON BOM_TYPE BOM_WIND BOM_PRES BOM_TNUM BOM_CI BOM_RMW BOM_R34_NE BOM_R34_SE BOM_R34_SW BOM_R34_NW BOM_R50_NE BOM_R50_SE BOM_R50_SW BOM_R50_NW BOM_R64_NE BOM_R64_SE BOM_R64_SW BOM_R64_NW BOM_ROCI BOM_POCI BOM_EYE BOM_POS_METHOD BOM_PRES_METHOD NADI_LAT NADI_LON NADI_CAT NADI_WIND NADI_PRES WELLINGTON_LAT WELLINGTON_LON WELLINGTON_WIND WELLINGTON_PRES DS824_LAT DS824_LON DS824_STAGE DS824_WIND DS824_PRES TD9636_LAT TD9636_LON TD9636_STAGE TD9636_WIND TD9636_PRES TD9635_LAT TD9635_LON TD9635_WIND TD9635_PRES TD9635_ROCI NEUMANN_LAT NEUMANN_LON NEUMANN_CLASS NEUMANN_WIND NEUMANN_PRES MLC_LAT MLC_LON MLC_CLASS MLC_WIND MLC_PRES USA_GUST BOM_GUST BOM_GUST_PER REUNION_GUST REUNION_GUST_PER USA_SEAHGT USA_SEARAD_NE USA_SEARAD_SE USA_SEARAD_SW USA_SEARAD_NW STORM_SPEED STORM_DIR
1927231N14320 1927 40 NA NA NOT_NAMED 1927-08-18 12:00:00 TS 14.0000 -40.0000 35 hurdat_atl main 1648 1606 O_____________ hurdat_atl AL011927 14.0000 -40.0000 TS 35 0 15 289
1927231N14320 1927 40 NA NA NOT_NAMED 1927-08-18 15:00:00 TS 14.2505 -40.7497 main 1614 1568 P_____________ AL011927 14.2505 -40.7497 TS 37 0 15 289
1927231N14320 1927 40 NA NA NOT_NAMED 1927-08-18 18:00:00 TS 14.5000 -41.5000 40 hurdat_atl main 1568 1533 O_____________ hurdat_atl AL011927 14.5000 -41.5000 TS 40 0 15 289
1927231N14320 1927 40 NA NA NOT_NAMED 1927-08-18 21:00:00 TS 14.7498 -42.2502 main 1526 1504 P_____________ AL011927 14.7498 -42.2502 TS 42 0 15 289
1927231N14320 1927 40 NA NA NOT_NAMED 1927-08-19 00:00:00 TS 15.0000 -43.0000 45 hurdat_atl main 1504 1477 O_____________ hurdat_atl AL011927 15.0000 -43.0000 TS 45 0 15 289
1927231N14320 1927 40 NA NA NOT_NAMED 1927-08-19 03:00:00 TS 15.2498 -43.7502 main 1471 1454 P_____________ AL011927 15.2498 -43.7502 TS 47 0 15 289
1927231N14320 1927 40 NA NA NOT_NAMED 1927-08-19 06:00:00 TS 15.5000 -44.5000 50 hurdat_atl main 1454 1427 O_____________ hurdat_atl AL011927 15.5000 -44.5000 TS 50 0 15 289
1927231N14320 1927 40 NA NA NOT_NAMED 1927-08-19 09:00:00 TS 15.7422 -45.2503 main 1420 1408 P_____________ AL011927 15.7422 -45.2503 TS 55 0 15 289
1927231N14320 1927 40 NA NA NOT_NAMED 1927-08-19 12:00:00 TS 16.0000 -46.0000 60 hurdat_atl main 1408 1395 O_____________ hurdat_atl AL011927 16.0000 -46.0000 TS 60 0 15 291
1927231N14320 1927 40 NA NA NOT_NAMED 1927-08-19 15:00:00 TS 16.2847 -46.7502 main 1395 1385 P_____________ AL011927 16.2847 -46.7502 TS 62 0 16 293
1927231N14320 1927 40 NA NA NOT_NAMED 1927-08-19 18:00:00 TS 16.6000 -47.5000 65 hurdat_atl main 1391 1386 O_____________ hurdat_atl AL011927 16.6000 -47.5000 HU 65 1 16 294
1927231N14320 1927 40 NA NA NOT_NAMED 1927-08-19 21:00:00 TS 16.9272 -48.2504 main 1388 1388 P_____________ AL011927 16.9272 -48.2504 HU 67 1 16 296
1927231N14320 1927 40 NA NA NOT_NAMED 1927-08-20 00:00:00 TS 17.3000 -49.0000 70 hurdat_atl main 1396 1391 O_____________ hurdat_atl AL011927 17.3000 -49.0000 HU 70 1 17 300
1927231N14320 1927 40 NA NA NOT_NAMED 1927-08-20 03:00:00 TS 17.7422 -49.7501 main 1405 1405 P_____________ AL011927 17.7422 -49.7501 HU 72 1 17 302
1927231N14320 1927 40 NA NA NOT_NAMED 1927-08-20 06:00:00 TS 18.2000 -50.5000 75 hurdat_atl main 1407 1375 O_____________ hurdat_atl AL011927 18.2000 -50.5000 HU 75 1 17 302
1927231N14320 1927 40 NA NA NOT_NAMED 1927-08-20 09:00:00 TS 18.6221 -51.2428 main 1375 1340 P_____________ AL011927 18.6221 -51.2428 HU 77 1 16 299
1927231N14320 1927 40 NA NA NOT_NAMED 1927-08-20 12:00:00 TS 19.0000 -52.0000 80 hurdat_atl main 1340 1310 O_____________ hurdat_atl AL011927 19.0000 -52.0000 HU 80 1 16 296
1927231N14320 1927 40 NA NA NOT_NAMED 1927-08-20 15:00:00 TS 19.3296 -52.7853 main 1304 1268 P_____________ AL011927 19.3296 -52.7853 HU 82 1 16 292
1927231N14320 1927 40 NA NA NOT_NAMED 1927-08-20 18:00:00 TS 19.6000 -53.6000 85 hurdat_atl main 1268 1186 O_____________ hurdat_atl AL011927 19.6000 -53.6000 HU 85 2 16 288
1927231N14320 1927 40 NA NA NOT_NAMED 1927-08-20 21:00:00 TS 19.8221 -54.4353 main 1186 1096 P_____________ AL011927 19.8221 -54.4353 HU 87 2 17 284
1927231N14320 1927 40 NA NA NOT_NAMED 1927-08-21 00:00:00 TS 20.0000 -55.3000 90 hurdat_atl main 1096 1015 O_____________ hurdat_atl AL011927 20.0000 -55.3000 HU 90 2 17 281
1927231N14320 1927 40 NA NA NOT_NAMED 1927-08-21 03:00:00 TS 20.1495 -56.1854 main 1004 926 P_____________ AL011927 20.1495 -56.1854 HU 95 2 17 280
1927231N14320 1927 40 NA NA NOT_NAMED 1927-08-21 06:00:00 TS 20.3000 -57.1000 100 hurdat_atl main 916 830 O_____________ hurdat_atl AL011927 20.3000 -57.1000 HU 100 3 18 280
1927231N14320 1927 40 NA NA NOT_NAMED 1927-08-21 09:00:00 TS 20.4694 -58.0281 main 830 747 P_____________ AL011927 20.4694 -58.0281 HU 102 3 18 283
1927231N14320 1927 40 NA NA NOT_NAMED 1927-08-21 12:00:00 TS 20.7000 -59.0000 105 hurdat_atl main 737 654 O_____________ hurdat_atl AL011927 20.7000 -59.0000 HU 105 3 19 286
1927231N14320 1927 40 NA NA NOT_NAMED 1927-08-21 15:00:00 TS 21.0120 -60.0279 main 654 586 P_____________ AL011927 21.0120 -60.0279 HU 107 3 21 290
1927231N14320 1927 40 NA NA NOT_NAMED 1927-08-21 18:00:00 TS 21.4000 -61.1000 110 hurdat_atl main 577 527 O_____________ hurdat_atl AL011927 21.4000 -61.1000 HU 110 3 22 292
1927231N14320 1927 40 NA NA NOT_NAMED 1927-08-21 21:00:00 TS 21.8266 -62.1782 main 520 493 P_____________ AL011927 21.8266 -62.1782 HU 110 3 22 294
1927231N14320 1927 40 NA NA NOT_NAMED 1927-08-22 00:00:00 TS 22.3000 -63.3000 110 hurdat_atl main 497 491 O_____________ hurdat_atl AL011927 22.3000 -63.3000 HU 110 3 24 294
1927231N14320 1927 40 NA NA NOT_NAMED 1927-08-22 03:00:00 TS 22.7776 -64.5155 main 505 500 P_____________ AL011927 22.7776 -64.5155 HU 110 3 24 294
1927231N14320 1927 40 NA NA NOT_NAMED 1927-08-22 06:00:00 TS 23.3000 -65.7000 110 950 hurdat_atl main 547 547 O_____________ hurdat_atl AL011927 23.3000 -65.7000 HU 110 950 3 23 298
1927231N14320 1927 40 NA NA NOT_NAMED 1927-08-22 09:00:00 TS 23.8690 -66.7460 main 580 570 P_____________ AL011927 23.8690 -66.7460 HU 110 3 22 303
1927231N14320 1927 40 NA NA NOT_NAMED 1927-08-22 12:00:00 TS 24.5000 -67.7000 110 hurdat_atl main 596 592 O_____________ hurdat_atl AL011927 24.5000 -67.7000 HU 110 3 22 307
1927231N14320 1927 40 NA NA NOT_NAMED 1927-08-22 15:00:00 TS 25.1696 -68.6383 main 633 622 P_____________ AL011927 25.1696 -68.6383 HU 110 3 22 311
1927231N14320 1927 40 NA NA NOT_NAMED 1927-08-22 18:00:00 TS 25.9000 -69.5000 110 hurdat_atl main 634 634 O_____________ hurdat_atl AL011927 25.9000 -69.5000 HU 110 3 21 316
1927231N14320 1927 40 NA NA NOT_NAMED 1927-08-22 21:00:00 TS 26.6845 -70.2883 main 672 672 P_____________ AL011927 26.6845 -70.2883 HU 110 3 21 320
1927231N14320 1927 40 NA NA NOT_NAMED 1927-08-23 00:00:00 TS 27.5000 -71.0000 110 hurdat_atl main 732 714 O_____________ hurdat_atl AL011927 27.5000 -71.0000 HU 110 3 20 322
1927231N14320 1927 40 NA NA NOT_NAMED 1927-08-23 03:00:00 TS 28.2925 -71.7103 main 720 709 P_____________ AL011927 28.2925 -71.7103 HU 110 3 20 324
1927231N14320 1927 40 NA NA NOT_NAMED 1927-08-23 06:00:00 TS 29.1000 -72.3000 110 hurdat_atl main 719 643 O_____________ hurdat_atl AL011927 29.1000 -72.3000 HU 110 3 19 332
1927231N14320 1927 40 NA NA NOT_NAMED 1927-08-23 09:00:00 TS 29.9421 -72.7331 main 643 543 P_____________ AL011927 29.9421 -72.7331 HU 110 3 18 340
1927231N14320 1927 40 NA NA NOT_NAMED 1927-08-23 12:00:00 TS 30.8000 -73.0000 110 hurdat_atl main 543 462 O_____________ hurdat_atl AL011927 30.8000 -73.0000 HU 110 3 18 347
1927231N14320 1927 40 NA NA NOT_NAMED 1927-08-23 15:00:00 TS 31.6498 -73.1751 main 462 391 P_____________ AL011927 31.6498 -73.1751 HU 110 3 17 354
1927231N14320 1927 40 NA NA NOT_NAMED 1927-08-23 18:00:00 TS 32.5000 -73.2000 110 hurdat_atl main 391 343 O_____________ hurdat_atl AL011927 32.5000 -73.2000 HU 110 3 17 2
1927231N14320 1927 40 NA NA NOT_NAMED 1927-08-23 21:00:00 TS 33.3424 -73.1100 main 343 296 P_____________ AL011927 33.3424 -73.1100 HU 107 3 17 8
1927231N14320 1927 40 NA NA NOT_NAMED 1927-08-24 00:00:00 TS 34.2000 -72.9000 105 hurdat_atl main 296 268 O_____________ hurdat_atl AL011927 34.2000 -72.9000 HU 105 3 18 13
1927231N14320 1927 40 NA NA NOT_NAMED 1927-08-24 03:00:00 TS 35.0775 -72.6369 main 273 267 P_____________ AL011927 35.0775 -72.6369 HU 102 3 19 15
1927231N14320 1927 40 NA NA NOT_NAMED 1927-08-24 06:00:00 TS 36.0000 -72.3000 100 hurdat_atl main 288 288 O_____________ hurdat_atl AL011927 36.0000 -72.3000 HU 100 3 19 15
1927231N14320 1927 40 NA NA NOT_NAMED 1927-08-24 09:00:00 TS 36.9230 -72.0343 main 313 293 P_____________ AL011927 36.9230 -72.0343 HU 97 3 21 18
1927231N14320 1927 40 NA NA NOT_NAMED 1927-08-24 12:00:00 TS 38.0000 -71.5000 95 hurdat_atl main 294 246 O_____________ hurdat_atl AL011927 38.0000 -71.5000 HU 95 2 27 28
1927231N14320 1927 40 NA NA NOT_NAMED 1927-08-24 15:00:00 TS 39.2707 -70.4804 main 244 134 P_____________ AL011927 39.2707 -70.4804 HU 92 2 34 35
1927231N14320 1927 40 NA NA NOT_NAMED 1927-08-24 18:00:00 TS 40.8000 -69.0000 90 hurdat_atl main 130 126 O_____________ hurdat_atl AL011927 40.8000 -69.0000 HU 90 2 41 37
1927231N14320 1927 40 NA NA NOT_NAMED 1927-08-24 21:00:00 TS 42.5600 -67.1586 main 151 0 P_____________ AL011927 42.5600 -67.1586 HU 87 2 47 39
1927231N14320 1927 40 NA NA NOT_NAMED 1927-08-25 00:00:00 ET 44.5000 -65.0000 85 hurdat_atl main 0 0 O_____________ hurdat_atl AL011927 44.5000 -65.0000 EX 85 -4 51 38
1927231N14320 1927 40 NA NA NOT_NAMED 1927-08-25 03:00:00 ET 46.5249 -62.7540 main 13 13 P_____________ AL011927 46.5249 -62.7540 EX 85 -4 51 39
1927231N14320 1927 40 NA NA NOT_NAMED 1927-08-25 06:00:00 ET 48.5000 -60.3000 85 hurdat_atl main 88 14 O_____________ hurdat_atl AL011927 48.5000 -60.3000 EX 85 -4 50 42
1927231N14320 1927 40 NA NA NOT_NAMED 1927-08-25 09:00:00 ET 50.2506 -57.6194 main 7 0 P_____________ AL011927 50.2506 -57.6194 EX 82 -4 48 47
1927231N14320 1927 40 NA NA NOT_NAMED 1927-08-25 12:00:00 ET 51.8000 -54.8000 80 hurdat_atl main 58 58 O_____________ hurdat_atl AL011927 51.8000 -54.8000 EX 80 -4 46 51
1927231N14320 1927 40 NA NA NOT_NAMED 1927-08-25 15:00:00 ET 53.1632 -51.8805 main 258 258 P_____________ AL011927 53.1632 -51.8805 EX 80 -4 43 53
1927231N14320 1927 40 NA NA NOT_NAMED 1927-08-25 18:00:00 ET 54.4000 -49.0000 80 hurdat_atl main 459 459 O_____________ hurdat_atl AL011927 54.4000 -49.0000 EX 80 -4 41 53
1927231N14320 1927 40 NA NA NOT_NAMED 1927-08-25 21:00:00 ET 55.6518 -46.2160 main 483 368 P_____________ AL011927 55.6518 -46.2160 EX 80 -4 39 52
1927231N14320 1927 40 NA NA NOT_NAMED 1927-08-26 00:00:00 ET 56.8000 -43.5000 80 hurdat_atl main 359 301 O_____________ hurdat_atl AL011927 56.8000 -43.5000 EX 80 -4 36 56
1927231N14320 1927 40 NA NA NOT_NAMED 1927-08-26 03:00:00 ET 57.6932 -40.7298 main 298 297 P_____________ AL011927 57.6932 -40.7298 EX 77 -4 34 59
1927231N14320 1927 40 NA NA NOT_NAMED 1927-08-26 06:00:00 ET 58.6000 -38.0000 75 hurdat_atl main 331 330 O_____________ hurdat_atl AL011927 58.6000 -38.0000 EX 75 -4 35 53
1927231N14320 1927 40 NA NA NOT_NAMED 1927-08-26 09:00:00 ET 59.8095 -35.2838 main 422 422 P_____________ AL011927 59.8095 -35.2838 EX 72 -4 37 50
1927231N14320 1927 40 NA NA NOT_NAMED 1927-08-26 12:00:00 ET 61.0000 -32.3000 70 hurdat_atl main 514 387 O_____________ hurdat_atl AL011927 61.0000 -32.3000 EX 70 -4 37 58
1927231N14320 1927 40 NA NA NOT_NAMED 1927-08-26 15:00:00 ET 61.8156 -28.7536 main 378 190 P_____________ AL011927 61.8156 -28.7536 EX 70 -4 37 66
1927231N14320 1927 40 NA NA NOT_NAMED 1927-08-26 18:00:00 ET 62.5000 -25.0000 70 hurdat_atl main 183 63 O_____________ hurdat_atl AL011927 62.5000 -25.0000 EX 70 -4 38 68
1927231N14320 1927 40 NA NA NOT_NAMED 1927-08-26 21:00:00 ET 63.2663 -21.1160 main 49 0 P_____________ AL011927 63.2663 -21.1160 EX 67 -4 37 66
1927231N14320 1927 40 NA NA NOT_NAMED 1927-08-27 00:00:00 ET 64.0000 -17.5000 65 hurdat_atl main 0 0 O_____________ hurdat_atl AL011927 64.0000 -17.5000 EX 65 -4 33 65
1927231N14320 1927 40 NA NA NOT_NAMED 1927-08-27 03:00:00 ET 64.6673 -14.3322 main 4 4 P_____________ AL011927 64.6673 -14.3322 EX 65 -4 27 61
1927231N14320 1927 40 NA NA NOT_NAMED 1927-08-27 06:00:00 ET 65.3000 -12.0000 65 hurdat_atl main 72 72 O_____________ hurdat_atl AL011927 65.3000 -12.0000 EX 65 -4 20 52
1927231N14320 1927 40 NA NA NOT_NAMED 1927-08-27 09:00:00 ET 65.8994 -10.5396 main 151 151 P_____________ AL011927 65.8994 -10.5396 EX 62 -4 14 34
1927231N14320 1927 40 NA NA NOT_NAMED 1927-08-27 12:00:00 ET 66.5000 -10.0000 60 hurdat_atl main 202 202 O_____________ hurdat_atl AL011927 66.5000 -10.0000 EX 60 -4 12 9
1927231N14320 1927 40 NA NA NOT_NAMED 1927-08-27 15:00:00 ET 67.0992 -10.0499 main 235 231 P_____________ AL011927 67.0992 -10.0499 EX 60 -4 12 351
1927231N14320 1927 40 NA NA NOT_NAMED 1927-08-27 18:00:00 ET 67.7000 -10.5000 60 hurdat_atl main 248 248 O_____________ hurdat_atl AL011927 67.7000 -10.5000 EX 60 -4 12 348
1927231N14320 1927 40 NA NA NOT_NAMED 1927-08-27 21:00:00 ET 68.3072 -10.7164 main 286 286 P_____________ AL011927 68.3072 -10.7164 EX 57 -4 12 351
1927231N14320 1927 40 NA NA NOT_NAMED 1927-08-28 00:00:00 ET 68.9000 -11.0000 55 hurdat_atl main 332 332 O_____________ hurdat_atl AL011927 68.9000 -11.0000 EX 55 -4 12 347
1927231N14320 1927 40 NA NA NOT_NAMED 1927-08-28 03:00:00 ET 69.4651 -11.4620 main 382 358 P_____________ AL011927 69.4651 -11.4620 EX 52 -4 11 342
1927231N14320 1927 40 NA NA NOT_NAMED 1927-08-28 06:00:00 ET 70.0000 -12.0000 50 hurdat_atl main 358 331 O_____________ hurdat_atl AL011927 70.0000 -12.0000 EX 50 -4 11 341
1927231N14320 1927 40 NA NA NOT_NAMED 1927-08-28 09:00:00 ET 70.5451 -12.5359 main 331 311 P_____________ AL011927 70.5451 -12.5359 EX 47 -4 10 342
1927231N14320 1927 40 NA NA NOT_NAMED 1927-08-28 12:00:00 ET 71.0000 -13.0000 45 hurdat_atl main 311 294 O_____________ hurdat_atl AL011927 71.0000 -13.0000 EX 45 -4 8 341
1927231N14320 1927 40 NA NA NOT_NAMED 1927-08-28 15:00:00 ET 71.3023 -13.3646 main 294 290 P_____________ AL011927 71.3023 -13.3646 EX 42 -4 5 342
1927231N14320 1927 40 NA NA NOT_NAMED 1927-08-28 18:00:00 ET 71.5000 -13.5000 40 hurdat_atl main 290 290 O_____________ hurdat_atl AL011927 71.5000 -13.5000 EX 40 -4 4 360
1927231N14320 1927 40 NA NA NOT_NAMED 1927-08-28 21:00:00 ET 71.6797 -13.3792 main 294 294 P_____________ AL011927 71.6797 -13.3792 EX 37 -4 3 28
1927231N14320 1927 40 NA NA NOT_NAMED 1927-08-29 00:00:00 ET 71.8000 -13.0000 35 hurdat_atl main 306 306 O_____________ hurdat_atl AL011927 71.8000 -13.0000 EX 35 -4 3 56
1927231N14320 1927 40 NA NA NOT_NAMED 1927-08-29 03:00:00 ET 71.8647 -12.4964 main 313 313 P_____________ AL011927 71.8647 -12.4964 EX 35 -4 4 75
1927231N14320 1927 40 NA NA NOT_NAMED 1927-08-29 06:00:00 ET 71.9000 -11.8000 35 hurdat_atl main 332 332 O_____________ hurdat_atl AL011927 71.9000 -11.8000 EX 35 -4 5 80
1927231N14320 1927 40 NA NA NOT_NAMED 1927-08-29 09:00:00 ET 71.9461 -10.9443 main 357 354 P_____________ AL011927 71.9461 -10.9443 EX 32 -4 6 80
1927231N14320 1927 40 NA NA NOT_NAMED 1927-08-29 12:00:00 ET 72.0000 -10.0000 30 hurdat_atl main 377 O_____________ hurdat_atl AL011927 72.0000 -10.0000 EX 30 -4 6 80

IBTrACS Databaseについて

本データベースは、米国NOAAが公開する1842年以降の世界の熱帯低気圧のベストトラックデータアーカイブInternational Best Track Archive for Climate Stewardship (IBTrACS)を、ウェブで閲覧しやすい形式に変換したものです。

最終更新日:2021-10-25